createdAt,value
2023-01-30T00:01:04.625Z,20.95
2023-01-30T00:03:31.144Z,22.33
2023-01-30T00:05:57.436Z,22.70
2023-01-30T00:08:23.817Z,18.65
2023-01-30T00:10:50.289Z,19.27
2023-01-30T00:13:17.135Z,21.02
2023-01-30T00:15:43.912Z,20.35
2023-01-30T00:18:10.527Z,20.38
2023-01-30T00:20:37.107Z,18.58
2023-01-30T00:23:03.678Z,17.88
2023-01-30T00:25:31.450Z,18.27
2023-01-30T00:28:01.818Z,19.15
2023-01-30T00:30:29.269Z,18.15
2023-01-30T00:32:57.729Z,18.75
2023-01-30T00:35:28.275Z,17.65
2023-01-30T00:37:58.584Z,18.33
2023-01-30T00:40:29.359Z,17.55
2023-01-30T00:43:14.589Z,17.23
2023-01-30T00:46:02.230Z,18.00
2023-01-30T00:48:28.954Z,17.48
2023-01-30T00:50:55.351Z,17.73
2023-01-30T00:53:21.714Z,18.33
2023-01-30T00:55:51.076Z,16.20
2023-01-30T00:58:17.862Z,17.60
2023-01-30T01:00:44.195Z,17.17
2023-01-30T01:03:10.655Z,17.23
2023-01-30T01:05:36.981Z,19.20
2023-01-30T01:08:03.908Z,18.83
2023-01-30T01:10:30.457Z,20.15
2023-01-30T01:12:56.797Z,17.35
2023-01-30T01:15:24.510Z,17.05
2023-01-30T01:17:50.899Z,16.85
2023-01-30T01:20:18.712Z,17.27
2023-01-30T01:22:45.813Z,16.17
2023-01-30T01:25:12.231Z,16.10
2023-01-30T01:27:38.674Z,17.17
2023-01-30T01:30:06.129Z,16.65
2023-01-30T01:32:32.684Z,15.05
2023-01-30T01:34:59.024Z,17.73
2023-01-30T01:37:25.559Z,16.13
2023-01-30T01:40:10.624Z,15.85
2023-01-30T01:42:38.666Z,15.82
2023-01-30T01:45:20.301Z,16.02
2023-01-30T01:47:59.975Z,16.15
2023-01-30T01:50:56.710Z,15.88
2023-01-30T01:53:28.112Z,15.80
2023-01-30T01:55:58.242Z,15.32
2023-01-30T01:58:47.579Z,16.13
2023-01-30T02:01:14.076Z,14.80
2023-01-30T02:03:45.361Z,14.68
2023-01-30T02:06:14.143Z,15.52
2023-01-30T02:08:49.940Z,17.25
2023-01-30T02:11:29.669Z,14.77
2023-01-30T02:13:57.946Z,16.20
2023-01-30T02:16:24.256Z,14.95
2023-01-30T02:18:50.858Z,14.80
2023-01-30T02:22:01.961Z,15.15
2023-01-30T02:24:37.101Z,15.82
2023-01-30T02:27:33.951Z,15.55
2023-01-30T02:30:47.608Z,15.05
2023-01-30T02:33:24.799Z,15.13
2023-01-30T02:36:06.106Z,14.48
2023-01-30T02:38:45.221Z,14.48
2023-01-30T02:41:22.247Z,14.70
2023-01-30T02:44:00.713Z,14.52
2023-01-30T02:46:37.441Z,15.07
2023-01-30T02:49:28.565Z,14.98
2023-01-30T02:51:56.952Z,14.43
2023-01-30T02:54:23.442Z,14.30
2023-01-30T02:56:56.949Z,14.32
2023-01-30T02:59:37.733Z,16.13
2023-01-30T03:02:41.220Z,14.88
2023-01-30T03:05:32.102Z,15.10
2023-01-30T03:08:11.290Z,14.93
2023-01-30T03:10:54.666Z,17.08
2023-01-30T03:13:54.959Z,15.77
2023-01-30T03:16:24.155Z,15.75
2023-01-30T03:18:50.678Z,15.00
2023-01-30T03:21:17.413Z,17.35
2023-01-30T03:23:47.333Z,16.95
2023-01-30T03:26:19.898Z,18.17
2023-01-30T03:28:49.504Z,17.75
2023-01-30T03:31:16.029Z,17.38
2023-01-30T03:33:42.979Z,18.20
2023-01-30T03:36:10.512Z,19.35
2023-01-30T03:38:37.219Z,18.40
2023-01-30T03:41:04.560Z,20.02
2023-01-30T03:43:31.279Z,18.00
2023-01-30T03:45:57.613Z,17.38
2023-01-30T03:48:23.983Z,19.52
2023-01-30T03:50:50.304Z,18.42
2023-01-30T03:53:16.659Z,17.27
2023-01-30T03:55:44.791Z,18.52
2023-01-30T03:58:11.375Z,19.15
2023-01-30T04:00:37.710Z,18.00
2023-01-30T04:03:04.101Z,18.98
2023-01-30T04:05:30.394Z,16.85
2023-01-30T04:07:57.908Z,16.05
2023-01-30T04:10:25.436Z,16.63
2023-01-30T04:12:51.853Z,16.83
2023-01-30T04:15:18.629Z,18.13
2023-01-30T04:17:45.123Z,16.90
2023-01-30T04:20:11.848Z,16.92
2023-01-30T04:22:38.213Z,15.73
2023-01-30T04:25:05.669Z,16.05
2023-01-30T04:27:32.007Z,15.02
2023-01-30T04:29:58.365Z,16.98
2023-01-30T04:32:26.783Z,16.45
2023-01-30T04:34:53.174Z,16.20
2023-01-30T04:37:19.537Z,15.18
2023-01-30T04:39:45.876Z,17.92
2023-01-30T04:42:12.143Z,16.05
2023-01-30T04:44:38.542Z,15.98
2023-01-30T04:47:05.069Z,15.63
2023-01-30T04:49:31.438Z,15.75
2023-01-30T04:51:57.774Z,17.55
2023-01-30T04:54:24.176Z,17.08
2023-01-30T04:56:50.503Z,15.98
2023-01-30T04:59:16.950Z,15.38
2023-01-30T05:01:43.434Z,16.35
2023-01-30T05:04:10.138Z,15.60
2023-01-30T05:06:36.950Z,17.65
2023-01-30T05:09:03.670Z,14.65
2023-01-30T05:11:30.399Z,16.10
2023-01-30T05:13:57.018Z,16.40
2023-01-30T05:16:23.709Z,15.73
2023-01-30T05:18:50.893Z,15.23
2023-01-30T05:21:22.769Z,15.15
2023-01-30T05:23:49.128Z,14.25
2023-01-30T05:26:16.035Z,15.60
2023-01-30T05:28:42.869Z,15.10
2023-01-30T05:31:13.927Z,15.23
2023-01-30T05:33:41.822Z,14.52
2023-01-30T05:36:13.283Z,14.70
2023-01-30T05:38:39.641Z,15.75
2023-01-30T05:41:08.127Z,14.27
2023-01-30T05:43:35.326Z,16.15
2023-01-30T05:46:04.217Z,14.35
2023-01-30T05:48:31.296Z,13.80
2023-01-30T05:50:59.476Z,12.07
2023-01-30T05:53:31.642Z,14.38
2023-01-30T05:56:00.311Z,14.95
2023-01-30T05:58:27.983Z,12.45
2023-01-30T06:00:54.549Z,13.68
2023-01-30T06:03:21.179Z,12.73
2023-01-30T06:05:47.481Z,12.73
2023-01-30T06:08:13.941Z,12.88
2023-01-30T06:10:40.309Z,12.68
2023-01-30T06:13:06.630Z,13.98
2023-01-30T06:15:33.288Z,12.35
2023-01-30T06:17:59.687Z,16.25
2023-01-30T06:20:26.105Z,13.10
2023-01-30T06:22:52.474Z,13.05
2023-01-30T06:25:19.266Z,12.82
2023-01-30T06:27:46.946Z,12.88
2023-01-30T06:30:13.638Z,12.80
2023-01-30T06:32:40.140Z,13.10
2023-01-30T06:35:06.911Z,13.60
2023-01-30T06:37:33.264Z,12.38
2023-01-30T06:39:59.579Z,13.63
2023-01-30T06:42:26.087Z,11.98
2023-01-30T06:44:52.403Z,12.00
2023-01-30T06:47:18.731Z,11.63
2023-01-30T06:49:45.373Z,11.40
2023-01-30T06:52:11.725Z,11.40
2023-01-30T06:54:38.044Z,11.40
2023-01-30T06:57:04.587Z,10.93
2023-01-30T06:59:30.928Z,11.10
2023-01-30T07:01:57.323Z,9.90
2023-01-30T07:04:23.733Z,11.13
2023-01-30T07:06:50.217Z,11.43
2023-01-30T07:09:16.640Z,10.80
2023-01-30T07:11:42.990Z,10.80
2023-01-30T07:14:09.685Z,11.48
2023-01-30T07:16:36.179Z,11.40
2023-01-30T07:19:02.462Z,13.50
2023-01-30T07:21:28.882Z,12.35
2023-01-30T07:23:55.613Z,12.68
2023-01-30T07:26:22.003Z,11.77
2023-01-30T07:28:48.484Z,12.30
2023-01-30T07:31:14.825Z,13.63
2023-01-30T07:33:41.125Z,15.65
2023-01-30T07:36:07.704Z,13.45
2023-01-30T07:38:34.079Z,12.10
2023-01-30T07:41:00.426Z,13.18
2023-01-30T07:43:26.722Z,14.10
2023-01-30T07:45:53.042Z,12.85
2023-01-30T07:48:21.049Z,12.40
2023-01-30T07:50:47.462Z,12.68
2023-01-30T07:53:16.136Z,12.43
2023-01-30T07:55:45.561Z,11.93
2023-01-30T07:58:15.857Z,13.63
2023-01-30T08:00:42.762Z,12.48
2023-01-30T08:03:14.069Z,12.13
2023-01-30T08:05:40.491Z,10.98
2023-01-30T08:08:06.869Z,11.13
2023-01-30T08:10:33.238Z,11.13
2023-01-30T08:12:59.717Z,10.50
2023-01-30T08:15:26.146Z,12.63
2023-01-30T08:17:56.685Z,11.63
2023-01-30T08:20:23.932Z,12.20
2023-01-30T08:22:50.452Z,12.43
2023-01-30T08:25:16.916Z,13.15
2023-01-30T08:27:43.315Z,13.05
2023-01-30T08:30:11.773Z,12.00
2023-01-30T08:32:38.200Z,12.82
2023-01-30T08:35:04.858Z,12.15
2023-01-30T08:37:31.152Z,12.60
2023-01-30T08:39:57.647Z,12.45
2023-01-30T08:42:27.025Z,12.57
2023-01-30T08:44:53.423Z,12.13
2023-01-30T08:47:19.773Z,12.45
2023-01-30T08:49:46.085Z,12.52
2023-01-30T08:52:12.557Z,13.07
2023-01-30T08:54:38.919Z,12.18
2023-01-30T08:57:05.205Z,12.43
2023-01-30T08:59:31.583Z,11.85
2023-01-30T09:01:59.112Z,11.52
2023-01-30T09:04:26.378Z,11.77
2023-01-30T09:06:52.763Z,10.95
2023-01-30T09:09:19.134Z,10.98
2023-01-30T09:11:47.896Z,10.65
2023-01-30T09:14:19.558Z,9.98
2023-01-30T09:16:48.143Z,10.52
2023-01-30T09:19:16.397Z,10.07
2023-01-30T09:21:42.808Z,10.43
2023-01-30T09:24:09.161Z,11.13
2023-01-30T09:26:35.509Z,10.57
2023-01-30T09:29:01.967Z,10.32
2023-01-30T09:31:28.436Z,10.57
2023-01-30T09:33:54.887Z,9.90
2023-01-30T09:36:21.287Z,31.90
2023-01-30T09:38:47.587Z,9.45
2023-01-30T09:41:30.517Z,9.85
2023-01-30T09:44:14.184Z,9.38
2023-01-30T09:47:09.787Z,9.63
2023-01-30T09:52:20.885Z,9.15
2023-01-30T09:54:47.818Z,8.32
2023-01-30T09:57:21.916Z,10.27
2023-01-30T10:00:06.810Z,9.70
2023-01-30T10:02:57.500Z,9.13
2023-01-30T10:05:36.503Z,8.07
2023-01-30T10:08:51.407Z,7.10
2023-01-30T10:11:22.931Z,6.55
2023-01-30T10:14:04.585Z,6.88
2023-01-30T10:16:41.720Z,5.85
2023-01-30T10:19:35.244Z,5.57
2023-01-30T10:22:47.390Z,6.15
2023-01-30T10:25:42.642Z,5.57
2023-01-30T10:28:25.481Z,5.75
2023-01-30T10:30:56.458Z,6.47
2023-01-30T10:33:30.508Z,5.90
2023-01-30T10:36:10.509Z,5.00
2023-01-30T10:38:39.987Z,5.60
2023-01-30T10:41:32.887Z,5.40
2023-01-30T10:44:04.181Z,5.43
2023-01-30T10:46:36.467Z,5.43
2023-01-30T10:49:11.338Z,5.75
2023-01-30T10:52:01.965Z,5.90
2023-01-30T10:54:48.155Z,6.80
2023-01-30T10:57:52.467Z,5.63
2023-01-30T11:00:32.585Z,5.40
2023-01-30T11:03:32.878Z,5.28
2023-01-30T11:06:07.663Z,5.82
2023-01-30T11:08:35.749Z,5.80
2023-01-30T11:11:23.578Z,5.85
2023-01-30T11:13:49.962Z,6.78
2023-01-30T11:16:16.633Z,5.88
2023-01-30T11:19:18.887Z,6.07
2023-01-30T11:21:44.042Z,5.88
2023-01-30T11:24:17.345Z,6.47
2023-01-30T11:26:47.837Z,7.53
2023-01-30T11:29:33.275Z,5.60
2023-01-30T11:32:12.127Z,6.43
2023-01-30T11:34:42.625Z,5.82
2023-01-30T11:37:37.517Z,5.65
2023-01-30T11:40:28.325Z,6.63
2023-01-30T11:43:12.257Z,6.75
2023-01-30T11:45:44.470Z,5.93
2023-01-30T11:48:33.026Z,6.30
2023-01-30T11:51:06.454Z,6.53
2023-01-30T11:53:44.144Z,5.97
2023-01-30T11:56:32.376Z,5.70
2023-01-30T11:59:01.530Z,6.45
2023-01-30T12:01:37.357Z,7.45
2023-01-30T12:04:08.407Z,6.45
2023-01-30T12:06:37.515Z,6.90
2023-01-30T12:09:05.417Z,6.95
2023-01-30T12:11:42.051Z,7.00
2023-01-30T12:14:30.329Z,6.47
2023-01-30T12:17:10.305Z,6.90
2023-01-30T12:19:51.180Z,7.03
2023-01-30T12:22:28.607Z,6.90
2023-01-30T12:24:59.327Z,6.95
2023-01-30T12:27:41.287Z,7.47
2023-01-30T12:30:26.527Z,6.65
2023-01-30T12:33:03.054Z,4.93
2023-01-30T12:36:00.812Z,4.18
2023-01-30T12:39:07.235Z,4.80
2023-01-30T12:45:01.549Z,4.93
2023-01-30T12:47:33.493Z,4.93
2023-01-30T12:50:06.415Z,4.97
2023-01-30T12:52:57.489Z,4.25
2023-01-30T12:55:49.262Z,4.63
2023-01-30T12:58:21.356Z,5.15
2023-01-30T13:01:02.459Z,4.38
2023-01-30T13:04:02.202Z,5.40
2023-01-30T13:06:58.290Z,4.25
2023-01-30T13:09:52.585Z,5.00
2023-01-30T13:12:44.559Z,5.28
2023-01-30T13:15:18.837Z,4.70
2023-01-30T13:18:06.383Z,4.85
2023-01-30T13:21:03.267Z,4.78
2023-01-30T13:23:42.492Z,4.75
2023-01-30T13:26:13.727Z,4.82
2023-01-30T13:28:45.491Z,4.80
2023-01-30T13:31:18.802Z,4.93
2023-01-30T13:33:49.346Z,6.07
2023-01-30T13:36:27.139Z,5.82
2023-01-30T13:39:05.481Z,5.18
2023-01-30T13:41:38.055Z,4.57
2023-01-30T13:44:43.487Z,4.05
2023-01-30T13:47:48.308Z,4.55
2023-01-30T13:50:33.830Z,5.13
2023-01-30T13:53:24.450Z,5.80
2023-01-30T13:55:57.255Z,6.15
2023-01-30T13:58:44.057Z,4.63
2023-01-30T14:01:12.872Z,5.10
2023-01-30T14:03:40.961Z,4.82
2023-01-30T14:06:26.522Z,5.15
2023-01-30T14:08:58.942Z,4.75
2023-01-30T14:11:35.912Z,4.80
2023-01-30T14:14:26.561Z,4.97
2023-01-30T14:17:16.433Z,5.25
2023-01-30T14:20:24.388Z,4.80
2023-01-30T14:22:55.619Z,4.82
2023-01-30T14:25:24.942Z,5.07
2023-01-30T14:28:00.366Z,4.90
2023-01-30T14:30:37.769Z,4.80
2023-01-30T14:33:24.171Z,5.22
2023-01-30T14:36:02.673Z,5.57
2023-01-30T14:38:33.052Z,5.03
2023-01-30T14:41:02.383Z,5.85
2023-01-30T14:43:39.053Z,5.55
2023-01-30T14:46:12.409Z,5.13
2023-01-30T14:48:47.489Z,5.05
2023-01-30T14:51:35.837Z,4.90
2023-01-30T14:54:17.180Z,5.13
2023-01-30T14:57:05.524Z,4.55
2023-01-30T14:59:38.043Z,4.45
2023-01-30T15:02:12.730Z,4.18
2023-01-30T15:04:46.682Z,4.88
2023-01-30T15:07:22.533Z,4.18
2023-01-30T15:10:21.256Z,4.22
2023-01-30T15:13:19.554Z,3.80
2023-01-30T15:16:34.365Z,4.13
2023-01-30T15:22:39.501Z,4.22
2023-01-30T15:25:27.412Z,4.25
2023-01-30T15:28:06.412Z,4.25
2023-01-30T15:30:38.616Z,5.22
2023-01-30T15:33:19.892Z,4.47
2023-01-30T15:35:49.227Z,4.60
2023-01-30T15:38:31.410Z,4.47
2023-01-30T15:41:04.565Z,4.40
2023-01-30T15:43:40.332Z,3.75
2023-01-30T15:46:51.375Z,4.80
2023-01-30T15:49:30.703Z,5.15
2023-01-30T15:52:02.600Z,4.93
2023-01-30T15:54:37.750Z,4.65
2023-01-30T15:57:17.496Z,5.18
2023-01-30T15:59:43.924Z,4.97
2023-01-30T16:02:24.740Z,4.72
2023-01-30T16:05:25.248Z,4.82
2023-01-30T16:07:54.754Z,4.93
2023-01-30T16:10:30.329Z,5.03
2023-01-30T16:12:58.263Z,5.28
2023-01-30T16:15:30.824Z,6.18
2023-01-30T16:18:05.683Z,5.43
2023-01-30T16:20:48.770Z,5.25
2023-01-30T16:23:38.640Z,5.45
2023-01-30T16:26:08.811Z,5.03
2023-01-30T16:28:35.582Z,5.30
2023-01-30T16:31:05.737Z,6.25
2023-01-30T16:33:38.463Z,5.10
2023-01-30T16:36:29.531Z,5.80
2023-01-30T16:38:56.110Z,5.22
2023-01-30T16:41:42.726Z,5.68
2023-01-30T16:44:23.825Z,6.10
2023-01-30T16:47:03.012Z,6.78
2023-01-30T16:49:32.041Z,5.68
2023-01-30T16:52:31.396Z,5.78
2023-01-30T16:55:00.638Z,6.53
2023-01-30T16:57:36.013Z,6.63
2023-01-30T17:00:24.412Z,5.63
2023-01-30T17:03:22.945Z,6.13
2023-01-30T17:05:50.100Z,5.82
2023-01-30T17:08:33.388Z,6.72
2023-01-30T17:11:10.111Z,7.05
2023-01-30T17:13:41.648Z,6.50
2023-01-30T17:16:23.214Z,6.20
2023-01-30T17:18:51.365Z,6.00
2023-01-30T17:21:19.151Z,7.22
2023-01-30T17:23:52.883Z,7.38
2023-01-30T17:26:19.412Z,7.57
2023-01-30T17:28:45.820Z,6.53
2023-01-30T17:31:14.158Z,7.63
2023-01-30T17:33:40.678Z,7.90
2023-01-30T17:36:23.992Z,8.25
2023-01-30T17:38:53.085Z,8.50
2023-01-30T17:41:25.223Z,12.82
2023-01-30T17:43:51.605Z,8.88
2023-01-30T17:46:22.262Z,8.80
2023-01-30T17:48:48.685Z,8.73
2023-01-30T17:51:15.047Z,8.30
2023-01-30T17:53:41.807Z,7.80
2023-01-30T17:56:17.543Z,8.65
2023-01-30T17:58:44.087Z,8.05
2023-01-30T18:01:11.889Z,8.15
2023-01-30T18:03:43.240Z,8.55
2023-01-30T18:06:13.511Z,8.95
2023-01-30T18:11:16.122Z,8.45
2023-01-30T18:13:42.827Z,9.40
2023-01-30T18:16:17.372Z,8.73
2023-01-30T18:18:43.747Z,7.82
2023-01-30T18:21:12.692Z,8.75
2023-01-30T18:23:39.189Z,7.57
2023-01-30T18:26:05.855Z,7.32
2023-01-30T18:28:32.223Z,7.18
2023-01-30T18:30:58.757Z,7.15
2023-01-30T18:33:27.918Z,8.70
2023-01-30T18:35:54.410Z,7.65
2023-01-30T18:38:20.874Z,7.32
2023-01-30T18:40:47.233Z,7.45
2023-01-30T18:43:14.248Z,7.78
2023-01-30T18:45:40.571Z,7.65
2023-01-30T18:48:07.076Z,7.88
2023-01-30T18:50:33.455Z,7.60
2023-01-30T18:52:59.864Z,8.07
2023-01-30T18:55:26.290Z,8.70
2023-01-30T18:57:52.694Z,8.05
2023-01-30T19:00:21.285Z,8.82
2023-01-30T19:02:52.421Z,8.73
2023-01-30T19:05:18.996Z,8.57
2023-01-30T19:07:46.050Z,8.48
2023-01-30T19:10:17.046Z,8.85
2023-01-30T19:13:03.492Z,8.93
2023-01-30T19:15:30.282Z,12.05
2023-01-30T19:17:57.758Z,8.93
2023-01-30T19:20:24.964Z,9.65
2023-01-30T19:22:51.854Z,9.55
2023-01-30T19:25:18.371Z,9.02
2023-01-30T19:27:44.845Z,9.50
2023-01-30T19:30:11.821Z,9.25
2023-01-30T19:32:38.160Z,9.75
2023-01-30T19:35:05.029Z,10.35
2023-01-30T19:37:31.524Z,9.95
2023-01-30T19:39:57.954Z,9.75
2023-01-30T19:42:24.443Z,9.88
2023-01-30T19:44:50.842Z,10.02
2023-01-30T19:47:17.490Z,9.52
2023-01-30T19:49:43.885Z,10.27
2023-01-30T19:52:10.230Z,8.75
2023-01-30T19:54:39.595Z,9.38
2023-01-30T19:57:06.001Z,9.05
2023-01-30T19:59:33.484Z,9.13
2023-01-30T20:01:59.945Z,8.77
2023-01-30T20:04:26.481Z,9.75
2023-01-30T20:06:52.819Z,9.57
2023-01-30T20:09:19.458Z,9.43
2023-01-30T20:11:45.829Z,9.38
2023-01-30T20:14:12.466Z,10.30
2023-01-30T20:16:39.553Z,8.63
2023-01-30T20:19:13.671Z,8.57
2023-01-30T20:21:40.167Z,8.60
2023-01-30T20:24:07.051Z,8.77
2023-01-30T20:26:36.212Z,9.32
2023-01-30T20:29:04.288Z,9.15
2023-01-30T20:31:31.648Z,9.20
2023-01-30T20:34:01.627Z,7.90
2023-01-30T20:36:28.262Z,7.88
2023-01-30T20:38:55.929Z,9.30
2023-01-30T20:41:26.836Z,8.93
2023-01-30T20:44:00.465Z,7.57
2023-01-30T20:46:28.800Z,8.35
2023-01-30T20:48:57.770Z,7.53
2023-01-30T20:51:26.639Z,9.13
2023-01-30T20:53:58.861Z,8.82
2023-01-30T20:56:29.801Z,8.88
2023-01-30T20:58:56.154Z,8.75
2023-01-30T21:01:24.419Z,8.55
2023-01-30T21:03:52.717Z,8.13
2023-01-30T21:06:42.976Z,8.05
2023-01-30T21:09:12.716Z,8.38
2023-01-30T21:11:39.910Z,8.00
2023-01-30T21:14:06.524Z,8.30
2023-01-30T21:16:34.412Z,8.55
2023-01-30T21:19:04.170Z,8.82
2023-01-30T21:21:38.160Z,8.50
2023-01-30T21:24:10.824Z,8.77
2023-01-30T21:26:39.692Z,9.32
2023-01-30T21:29:08.169Z,9.15
2023-01-30T21:31:36.073Z,9.30
2023-01-30T21:34:02.965Z,10.25
2023-01-30T21:36:29.414Z,8.55
2023-01-30T21:39:15.119Z,8.57
2023-01-30T21:42:03.715Z,8.80
2023-01-30T21:44:32.760Z,9.45
2023-01-30T21:46:59.511Z,8.73
2023-01-30T21:49:26.573Z,7.82
2023-01-30T21:51:53.403Z,7.95
2023-01-30T21:54:20.510Z,7.28
2023-01-30T21:56:47.607Z,7.95
2023-01-30T21:59:14.365Z,8.07
2023-01-30T22:01:41.523Z,7.80
2023-01-30T22:04:10.900Z,8.35
2023-01-30T22:06:37.851Z,10.75
2023-01-30T22:09:05.890Z,10.07
2023-01-30T22:11:34.846Z,10.18
2023-01-30T22:14:01.353Z,11.30
2023-01-30T22:16:28.814Z,11.75
2023-01-30T22:18:58.120Z,10.02
2023-01-30T22:21:28.835Z,10.32
2023-01-30T22:23:55.809Z,10.30
2023-01-30T22:26:26.496Z,9.57
2023-01-30T22:28:57.924Z,10.32
2023-01-30T22:31:25.951Z,11.07
2023-01-30T22:33:54.987Z,10.45
2023-01-30T22:36:28.755Z,11.00
2023-01-30T22:38:58.223Z,10.77
2023-01-30T22:41:26.260Z,9.70
2023-01-30T22:43:57.866Z,10.65
2023-01-30T22:46:26.509Z,10.35
2023-01-30T22:48:54.019Z,9.88
2023-01-30T22:51:23.283Z,11.00
2023-01-30T22:53:55.183Z,11.07
2023-01-30T22:56:30.010Z,10.30
2023-01-30T22:58:56.780Z,10.30
2023-01-30T23:01:26.248Z,11.02
2023-01-30T23:06:20.473Z,8.98
2023-01-30T23:08:48.489Z,10.05
2023-01-30T23:11:24.217Z,10.73
2023-01-30T23:13:53.845Z,9.60
2023-01-30T23:16:23.634Z,11.40
2023-01-30T23:18:56.397Z,10.68
2023-01-30T23:21:25.146Z,9.00
2023-01-30T23:23:54.065Z,8.55
2023-01-30T23:26:21.910Z,10.55
2023-01-30T23:28:48.685Z,9.02
2023-01-30T23:31:19.121Z,9.60
2023-01-30T23:33:46.342Z,9.00
2023-01-30T23:36:14.456Z,9.27
2023-01-30T23:38:40.881Z,10.88
2023-01-30T23:41:15.887Z,9.35
2023-01-30T23:43:44.007Z,9.38
2023-01-30T23:46:20.074Z,11.10
2023-01-30T23:48:49.105Z,9.10
2023-01-30T23:51:17.606Z,9.00
2023-01-30T23:53:45.069Z,9.35
2023-01-30T23:56:12.440Z,10.07
2023-01-30T23:58:39.926Z,9.20
